アルハンゲリスク の空港の天気 - METARとTAF

Arhangel'Sk ( ULAA / ARH ) - ロシア アルハンゲリスク
飛行場実況気象(Metar)
観測時間10/21 20:30 MSK (10/21 17:30 UTC)
風向・風速不定 1m/s
視程8000m
天気現象氷霧
全天の4割程度の雲 雲底高度 1220m
気温-2℃
湿度93%
気圧1014hPa
METARULAA 211730Z VRB01MPS 8000 0900W FZFG SCT040 M02/M03 Q1014 R26/920250 NOSIG RMK QFE759/1012
過去の天気等 Google飛行場航空写真 Wunderground天気予報

過去48時間のMETAR

飛行場予報(TAF)
発表時間: 10/21 20:00 MSK (10/21 17:00 UTC)
予報対象時間: 21日21時 MSK ~ 22日21時 MSK
風向・風速不定 1m/s
視程6000m
全天の8割程度の雲 雲底高度 490m
21日21時 MSK ~ 22日9時 MSK に一時的に
視程300m
天気現象氷霧
全天の8割程度の雲 雲底高度 60m
22日9時 MSK から
風向・風速南東 3m/s
視程10km以上
全天の8割程度の雲 雲底高度 520m
22日9時 MSK ~ 22日21時 MSK に一時的に
視程6000m
天気現象弱いしゅう雪
少しの雲 雲底高度 150m
全天の8割程度の積乱雲 雲底高度 490m
TAF ULAA 211700Z 2118/2218 VRB01MPS 6000 BKN016
TEMPO 2118/2206 0300 FZFG BKN002
FM220600 14003MPS 9999 BKN017
TEMPO 2206/2218 6000 -SHSN FEW005 BKN016CB